sensor_id;sensor_type;location;lat;lon;timestamp;P1;durP1;ratioP1;P2;durP2;ratioP2
11211;SDS011;5663;50.864;12.096;2022-07-23T00:30:54;6.40;;;5.83;;
11211;SDS011;5663;50.864;12.096;2022-07-23T00:33:24;5.60;;;5.10;;
11211;SDS011;5663;50.864;12.096;2022-07-23T00:35:53;6.07;;;5.47;;
11211;SDS011;5663;50.864;12.096;2022-07-23T00:38:23;5.97;;;5.47;;
11211;SDS011;5663;50.864;12.096;2022-07-23T00:41:01;7.03;;;5.40;;
11211;SDS011;5663;50.864;12.096;2022-07-23T00:43:29;6.87;;;5.37;;
11211;SDS011;5663;50.864;12.096;2022-07-23T00:53:45;5.10;;;4.70;;
11211;SDS011;5663;50.864;12.096;2022-07-23T00:56:14;8.17;;;5.30;;
11211;SDS011;5663;50.864;12.096;2022-07-23T00:58:44;5.93;;;5.33;;
11211;SDS011;5663;50.864;12.096;2022-07-23T01:01:14;6.00;;;5.13;;
11211;SDS011;5663;50.864;12.096;2022-07-23T01:03:44;5.80;;;5.20;;
11211;SDS011;5663;50.864;12.096;2022-07-23T02:18:06;7.93;;;6.10;;
11211;SDS011;5663;50.864;12.096;2022-07-23T02:20:55;7.77;;;6.43;;
11211;SDS011;5663;50.864;12.096;2022-07-23T02:23:59;6.33;;;5.73;;
11211;SDS011;5663;50.864;12.096;2022-07-23T02:26:45;6.27;;;5.63;;
11211;SDS011;5663;50.864;12.096;2022-07-23T02:29:32;7.80;;;5.73;;
11211;SDS011;5663;50.864;12.096;2022-07-23T02:39:17;8.83;;;6.47;;
11211;SDS011;5663;50.864;12.096;2022-07-23T02:52:29;8.83;;;6.40;;
11211;SDS011;5663;50.864;12.096;2022-07-23T03:06:59;8.53;;;7.23;;
11211;SDS011;5663;50.864;12.096;2022-07-23T03:13:56;7.37;;;6.20;;
11211;SDS011;5663;50.864;12.096;2022-07-23T04:08:45;7.47;;;6.67;;
11211;SDS011;5663;50.864;12.096;2022-07-23T05:26:56;10.70;;;6.00;;
11211;SDS011;5663;50.864;12.096;2022-07-23T05:29:25;6.53;;;5.33;;
11211;SDS011;5663;50.864;12.096;2022-07-23T05:38:50;7.90;;;5.67;;
11211;SDS011;5663;50.864;12.096;2022-07-23T06:00:05;15.10;;;5.20;;
11211;SDS011;5663;50.864;12.096;2022-07-23T06:05:27;7.47;;;4.33;;
11211;SDS011;5663;50.864;12.096;2022-07-23T06:08:20;9.37;;;5.53;;
11211;SDS011;5663;50.864;12.096;2022-07-23T06:10:52;7.47;;;5.37;;
11211;SDS011;5663;50.864;12.096;2022-07-23T06:19:13;6.47;;;4.93;;
11211;SDS011;5663;50.864;12.096;2022-07-23T06:20:27;8.63;;;5.10;;
11211;SDS011;5663;50.864;12.096;2022-07-23T06:22:58;7.10;;;4.90;;
11211;SDS011;5663;50.864;12.096;2022-07-23T06:25:40;7.57;;;5.33;;
11211;SDS011;5663;50.864;12.096;2022-07-23T06:29:02;9.80;;;5.53;;
11211;SDS011;5663;50.864;12.096;2022-07-23T06:35:18;9.97;;;5.13;;
11211;SDS011;5663;50.864;12.096;2022-07-23T06:37:52;6.13;;;5.53;;
11211;SDS011;5663;50.864;12.096;2022-07-23T06:40:45;9.87;;;5.70;;
11211;SDS011;5663;50.864;12.096;2022-07-23T06:43:30;10.70;;;6.03;;
11211;SDS011;5663;50.864;12.096;2022-07-23T07:03:38;6.30;;;5.70;;
11211;SDS011;5663;50.864;12.096;2022-07-23T07:06:14;7.93;;;6.23;;
11211;SDS011;5663;50.864;12.096;2022-07-23T07:37:01;9.33;;;5.47;;
11211;SDS011;5663;50.864;12.096;2022-07-23T07:51:05;6.30;;;5.27;;
11211;SDS011;5663;50.864;12.096;2022-07-23T08:07:48;6.97;;;6.00;;
11211;SDS011;5663;50.864;12.096;2022-07-23T08:17:23;8.80;;;6.13;;
11211;SDS011;5663;50.864;12.096;2022-07-23T08:19:56;9.70;;;5.73;;
11211;SDS011;5663;50.864;12.096;2022-07-23T08:30:19;7.50;;;6.40;;
11211;SDS011;5663;50.864;12.096;2022-07-23T08:33:29;9.17;;;6.17;;
11211;SDS011;5663;50.864;12.096;2022-07-23T15:20:03;6.50;;;5.90;;
11211;SDS011;5663;50.864;12.096;2022-07-23T15:22:26;7.32;;;6.63;;
11211;SDS011;5663;50.864;12.096;2022-07-23T15:25:12;7.32;;;6.68;;
11211;SDS011;5663;50.864;12.096;2022-07-23T15:27:43;7.60;;;6.90;;
11211;SDS011;5663;50.864;12.096;2022-07-23T15:30:47;9.07;;;8.27;;
11211;SDS011;5663;50.864;12.096;2022-07-23T15:33:16;7.13;;;6.53;;
11211;SDS011;5663;50.864;12.096;2022-07-23T15:35:45;7.95;;;7.22;;
11211;SDS011;5663;50.864;12.096;2022-07-23T15:40:57;7.15;;;6.40;;
11211;SDS011;5663;50.864;12.096;2022-07-23T15:43:25;10.73;;;7.30;;
11211;SDS011;5663;50.864;12.096;2022-07-23T15:45:53;8.10;;;6.72;;
11211;SDS011;5663;50.864;12.096;2022-07-23T15:48:23;7.22;;;6.50;;
11211;SDS011;5663;50.864;12.096;2022-07-23T15:50:51;9.10;;;6.85;;
11211;SDS011;5663;50.864;12.096;2022-07-23T15:53:21;7.22;;;6.53;;
11211;SDS011;5663;50.864;12.096;2022-07-23T15:55:49;16.85;;;7.88;;
11211;SDS011;5663;50.864;12.096;2022-07-23T15:58:21;7.25;;;6.30;;
11211;SDS011;5663;50.864;12.096;2022-07-23T16:00:56;7.38;;;6.35;;
11211;SDS011;5663;50.864;12.096;2022-07-23T16:03:26;8.27;;;7.10;;
11211;SDS011;5663;50.864;12.096;2022-07-23T16:05:55;9.23;;;8.23;;
11211;SDS011;5663;50.864;12.096;2022-07-23T16:08:28;7.93;;;7.10;;
11211;SDS011;5663;50.864;12.096;2022-07-23T16:11:02;7.70;;;7.00;;
11211;SDS011;5663;50.864;12.096;2022-07-23T16:13:29;7.75;;;6.95;;
11211;SDS011;5663;50.864;12.096;2022-07-23T16:15:59;10.35;;;7.43;;
11211;SDS011;5663;50.864;12.096;2022-07-23T16:18:35;7.68;;;6.88;;
11211;SDS011;5663;50.864;12.096;2022-07-23T16:21:05;7.22;;;6.30;;
11211;SDS011;5663;50.864;12.096;2022-07-23T16:23:32;7.88;;;6.50;;
11211;SDS011;5663;50.864;12.096;2022-07-23T16:26:09;6.93;;;6.25;;
11211;SDS011;5663;50.864;12.096;2022-07-23T16:28:43;7.13;;;6.43;;
11211;SDS011;5663;50.864;12.096;2022-07-23T16:31:21;9.07;;;6.22;;
11211;SDS011;5663;50.864;12.096;2022-07-23T17:34:06;6.05;;;5.45;;
11211;SDS011;5663;50.864;12.096;2022-07-23T17:36:39;6.35;;;5.75;;
11211;SDS011;5663;50.864;12.096;2022-07-23T17:39:14;6.43;;;5.82;;
11211;SDS011;5663;50.864;12.096;2022-07-23T17:41:43;6.28;;;5.60;;
11211;SDS011;5663;50.864;12.096;2022-07-23T17:44:15;6.10;;;5.50;;
11211;SDS011;5663;50.864;12.096;2022-07-23T17:46:45;5.70;;;5.20;;
11211;SDS011;5663;50.864;12.096;2022-07-23T17:49:18;7.43;;;5.50;;
11211;SDS011;5663;50.864;12.096;2022-07-23T17:51:46;6.45;;;5.80;;
11211;SDS011;5663;50.864;12.096;2022-07-23T17:54:14;6.35;;;5.05;;
11211;SDS011;5663;50.864;12.096;2022-07-23T17:56:58;5.60;;;5.10;;
11211;SDS011;5663;50.864;12.096;2022-07-23T17:59:26;7.78;;;5.80;;
11211;SDS011;5663;50.864;12.096;2022-07-23T18:01:55;4.88;;;4.45;;
11211;SDS011;5663;50.864;12.096;2022-07-23T18:04:25;7.88;;;7.00;;
11211;SDS011;5663;50.864;12.096;2022-07-23T18:06:55;12.15;;;7.32;;
11211;SDS011;5663;50.864;12.096;2022-07-23T18:09:24;7.97;;;5.40;;
11211;SDS011;5663;50.864;12.096;2022-07-23T18:11:53;6.40;;;4.63;;
11211;SDS011;5663;50.864;12.096;2022-07-23T18:14:22;5.22;;;4.22;;
11211;SDS011;5663;50.864;12.096;2022-07-23T18:16:53;3.65;;;3.35;;
11211;SDS011;5663;50.864;12.096;2022-07-23T18:19:23;4.32;;;3.92;;
11211;SDS011;5663;50.864;12.096;2022-07-23T18:22:03;5.10;;;3.53;;
11211;SDS011;5663;50.864;12.096;2022-07-23T18:24:42;28.83;;;4.45;;
11211;SDS011;5663;50.864;12.096;2022-07-23T18:27:16;4.93;;;3.53;;
11211;SDS011;5663;50.864;12.096;2022-07-23T18:29:55;3.78;;;3.38;;
11211;SDS011;5663;50.864;12.096;2022-07-23T18:32:45;5.93;;;3.70;;
11211;SDS011;5663;50.864;12.096;2022-07-23T18:35:20;4.95;;;3.70;;
11211;SDS011;5663;50.864;12.096;2022-07-23T18:37:55;6.38;;;3.70;;
11211;SDS011;5663;50.864;12.096;2022-07-23T18:40:29;4.28;;;3.88;;
11211;SDS011;5663;50.864;12.096;2022-07-23T18:43:01;6.28;;;4.35;;
11211;SDS011;5663;50.864;12.096;2022-07-23T18:45:35;5.03;;;3.72;;
11211;SDS011;5663;50.864;12.096;2022-07-23T18:48:05;5.30;;;3.88;;
11211;SDS011;5663;50.864;12.096;2022-07-23T18:50:34;3.70;;;3.30;;
11211;SDS011;5663;50.864;12.096;2022-07-23T18:53:06;4.30;;;3.90;;
11211;SDS011;5663;50.864;12.096;2022-07-23T18:55:36;5.40;;;3.60;;
11211;SDS011;5663;50.864;12.096;2022-07-23T18:58:10;12.93;;;3.70;;
11211;SDS011;5663;50.864;12.096;2022-07-23T19:00:43;8.35;;;4.03;;
11211;SDS011;5663;50.864;12.096;2022-07-23T19:03:13;11.73;;;4.53;;
11211;SDS011;5663;50.864;12.096;2022-07-23T19:05:53;10.43;;;4.43;;
11211;SDS011;5663;50.864;12.096;2022-07-23T19:08:36;6.35;;;4.38;;
11211;SDS011;5663;50.864;12.096;2022-07-23T19:11:27;5.28;;;3.95;;
11211;SDS011;5663;50.864;12.096;2022-07-23T19:14:34;8.10;;;4.32;;
11211;SDS011;5663;50.864;12.096;2022-07-23T19:17:32;6.53;;;4.28;;
11211;SDS011;5663;50.864;12.096;2022-07-23T19:20:53;6.75;;;3.90;;
11211;SDS011;5663;50.864;12.096;2022-07-23T19:30:24;3.72;;;3.42;;
11211;SDS011;5663;50.864;12.096;2022-07-23T19:32:52;4.65;;;4.22;;
11211;SDS011;5663;50.864;12.096;2022-07-23T19:35:25;5.70;;;3.72;;
11211;SDS011;5663;50.864;12.096;2022-07-23T19:38:24;8.70;;;4.45;;
11211;SDS011;5663;50.864;12.096;2022-07-23T19:47:10;7.35;;;4.50;;
11211;SDS011;5663;50.864;12.096;2022-07-23T19:49:38;9.90;;;4.80;;
11211;SDS011;5663;50.864;12.096;2022-07-23T19:52:06;7.88;;;4.60;;
11211;SDS011;5663;50.864;12.096;2022-07-23T19:54:39;5.15;;;4.65;;
11211;SDS011;5663;50.864;12.096;2022-07-23T19:57:14;9.93;;;4.97;;
11211;SDS011;5663;50.864;12.096;2022-07-23T19:59:43;9.15;;;4.95;;
11211;SDS011;5663;50.864;12.096;2022-07-23T20:06:09;10.55;;;5.35;;
11211;SDS011;5663;50.864;12.096;2022-07-23T20:08:38;7.85;;;5.30;;
11211;SDS011;5663;50.864;12.096;2022-07-23T20:11:25;5.72;;;5.15;;
11211;SDS011;5663;50.864;12.096;2022-07-23T20:14:35;5.28;;;4.78;;
11211;SDS011;5663;50.864;12.096;2022-07-23T20:18:06;7.03;;;5.63;;
11211;SDS011;5663;50.864;12.096;2022-07-23T22:55:31;7.33;;;5.90;;
